createdAt,value
2019-02-03T00:00:24.717Z,7.68
2019-02-03T00:11:24.943Z,7.70
2019-02-03T00:22:28.103Z,7.56
2019-02-03T00:33:26.741Z,7.53
2019-02-03T00:44:37.244Z,7.67
2019-02-03T00:55:36.832Z,7.63
2019-02-03T01:06:29.516Z,7.63
2019-02-03T01:17:28.817Z,7.67
2019-02-03T01:28:29.666Z,7.75
2019-02-03T01:39:25.463Z,7.79
2019-02-03T01:50:22.344Z,7.97
2019-02-03T02:01:23.539Z,8.57
2019-02-03T02:12:27.641Z,9.22
2019-02-03T02:23:29.679Z,9.06
2019-02-03T02:34:33.907Z,8.91
2019-02-03T02:45:33.848Z,9.52
2019-02-03T02:56:37.933Z,9.25
2019-02-03T03:07:38.594Z,9.24
2019-02-03T03:18:38.752Z,9.32
2019-02-03T03:29:40.331Z,9.40
2019-02-03T03:40:19.078Z,9.17
2019-02-03T03:51:16.689Z,8.77
2019-02-03T04:02:20.501Z,8.58
2019-02-03T04:13:24.849Z,8.33
2019-02-03T04:24:26.076Z,8.24
2019-02-03T04:35:28.934Z,7.93
2019-02-03T04:46:33.392Z,7.88
2019-02-03T04:57:38.103Z,8.03
2019-02-03T05:08:42.300Z,7.78
2019-02-03T05:19:47.059Z,7.73
2019-02-03T05:30:51.560Z,7.76
2019-02-03T05:41:52.566Z,7.73
2019-02-03T05:52:50.420Z,8.00
2019-02-03T06:03:49.044Z,7.47
2019-02-03T06:14:25.138Z,6.99
2019-02-03T06:25:22.884Z,6.70
2019-02-03T06:36:21.365Z,6.60
2019-02-03T06:47:23.531Z,7.11
2019-02-03T06:58:26.101Z,7.11
2019-02-03T07:09:27.767Z,6.90
2019-02-03T07:20:20.491Z,6.75
2019-02-03T07:31:18.941Z,6.91
2019-02-03T07:42:11.900Z,7.12
2019-02-03T07:53:12.000Z,7.23
2019-02-03T08:04:11.976Z,7.52
2019-02-03T08:15:14.713Z,7.78
2019-02-03T08:26:12.721Z,8.11
2019-02-03T08:37:15.785Z,8.29
2019-02-03T08:48:07.215Z,8.61
2019-02-03T08:59:11.578Z,8.90
2019-02-03T09:10:05.774Z,8.91
2019-02-03T09:21:03.854Z,9.70
2019-02-03T09:32:01.502Z,10.10
2019-02-03T09:43:01.149Z,10.43
2019-02-03T09:54:03.257Z,10.31
2019-02-03T10:05:01.715Z,10.74
2019-02-03T10:16:00.357Z,11.06
2019-02-03T10:26:58.968Z,10.66
2019-02-03T10:37:54.260Z,10.65
2019-02-03T10:48:40.085Z,11.35
2019-02-03T10:59:31.756Z,11.42
2019-02-03T11:10:23.910Z,11.59
2019-02-03T11:21:15.537Z,11.81
2019-02-03T11:32:19.772Z,12.06
2019-02-03T11:43:20.409Z,11.61
2019-02-03T11:54:23.106Z,12.02
2019-02-03T12:05:25.550Z,12.16
2019-02-03T12:16:28.185Z,12.55
2019-02-03T12:27:20.898Z,12.64
2019-02-03T12:38:20.106Z,12.61
2019-02-03T12:49:19.061Z,12.41
2019-02-03T13:00:19.701Z,12.02
2019-02-03T13:11:22.807Z,11.95
2019-02-03T13:22:26.001Z,12.05
2019-02-03T13:33:26.983Z,10.88
2019-02-03T13:44:28.971Z,10.22
2019-02-03T13:55:26.613Z,9.92
2019-02-03T14:06:26.490Z,9.37
2019-02-03T14:17:21.457Z,8.66
2019-02-03T14:28:15.350Z,8.22
2019-02-03T14:39:15.704Z,8.33
2019-02-03T14:50:17.442Z,7.93
2019-02-03T15:01:12.740Z,7.68
2019-02-03T15:12:14.198Z,7.68
2019-02-03T15:23:06.883Z,7.55
2019-02-03T15:33:50.991Z,7.59
2019-02-03T15:44:49.706Z,7.60
2019-02-03T15:55:45.169Z,7.64
2019-02-03T16:06:44.760Z,7.57
2019-02-03T16:17:45.819Z,7.68
2019-02-03T16:28:47.790Z,7.55
2019-02-03T16:39:42.866Z,7.59
2019-02-03T16:50:51.266Z,7.57
2019-02-03T17:01:43.921Z,7.67
2019-02-03T17:12:44.924Z,7.67
2019-02-03T17:23:39.803Z,7.67
2019-02-03T17:34:43.536Z,7.67
2019-02-03T17:45:42.807Z,7.62
2019-02-03T17:56:45.638Z,7.53
2019-02-03T18:07:42.702Z,7.48
2019-02-03T18:18:41.899Z,7.44
2019-02-03T18:29:45.306Z,7.44
2019-02-03T18:40:43.774Z,7.31
2019-02-03T18:51:35.970Z,7.17
2019-02-03T19:02:38.458Z,7.17
2019-02-03T19:13:37.853Z,7.11
2019-02-03T19:24:35.079Z,6.94
2019-02-03T19:35:31.683Z,6.72
2019-02-03T19:46:33.264Z,6.66
2019-02-03T19:57:34.859Z,6.41
2019-02-03T20:08:30.793Z,6.24
2019-02-03T20:19:42.091Z,6.08
2019-02-03T20:30:45.843Z,5.77
2019-02-03T20:41:43.702Z,5.90
2019-02-03T20:52:43.760Z,5.71
2019-02-03T21:03:46.962Z,5.54
2019-02-03T21:14:51.195Z,5.44
2019-02-03T21:25:53.651Z,5.44
2019-02-03T21:36:51.768Z,5.17
2019-02-03T21:47:55.206Z,5.18
2019-02-03T21:58:52.200Z,5.20
2019-02-03T22:09:56.917Z,5.06
2019-02-03T22:20:58.099Z,4.98
2019-02-03T22:32:01.603Z,5.02
2019-02-03T22:43:02.296Z,4.91
2019-02-03T22:54:03.278Z,5.03
2019-02-03T23:05:07.170Z,4.83
2019-02-03T23:16:17.707Z,4.77
2019-02-03T23:27:15.476Z,4.83
2019-02-03T23:38:14.763Z,4.74
2019-02-03T23:49:13.883Z,4.61
